sensor_id;sensor_type;location;lat;lon;timestamp;P1;durP1;ratioP1;P2;durP2;ratioP2
69534;SDS011;56754;51.568;5.048;2023-04-07T00:01:26;8.77;;;3.93;;
69534;SDS011;56754;51.568;5.048;2023-04-07T00:03:52;8.13;;;3.90;;
69534;SDS011;56754;51.568;5.048;2023-04-07T00:06:17;9.77;;;4.70;;
69534;SDS011;56754;51.568;5.048;2023-04-07T00:08:42;11.60;;;4.73;;
69534;SDS011;56754;51.568;5.048;2023-04-07T00:11:08;10.37;;;4.87;;
69534;SDS011;56754;51.568;5.048;2023-04-07T00:13:33;10.30;;;4.63;;
69534;SDS011;56754;51.568;5.048;2023-04-07T00:15:58;8.77;;;4.20;;
69534;SDS011;56754;51.568;5.048;2023-04-07T00:18:24;9.27;;;4.27;;
69534;SDS011;56754;51.568;5.048;2023-04-07T00:20:49;8.73;;;4.50;;
69534;SDS011;56754;51.568;5.048;2023-04-07T00:23:14;11.03;;;4.27;;
69534;SDS011;56754;51.568;5.048;2023-04-07T00:25:39;9.37;;;4.40;;
69534;SDS011;56754;51.568;5.048;2023-04-07T00:28:05;9.00;;;4.53;;
69534;SDS011;56754;51.568;5.048;2023-04-07T00:30:30;9.00;;;3.90;;
69534;SDS011;56754;51.568;5.048;2023-04-07T00:32:55;7.53;;;3.50;;
69534;SDS011;56754;51.568;5.048;2023-04-07T00:35:21;8.87;;;4.20;;
69534;SDS011;56754;51.568;5.048;2023-04-07T00:37:46;9.20;;;4.17;;
69534;SDS011;56754;51.568;5.048;2023-04-07T00:40:11;9.03;;;4.20;;
69534;SDS011;56754;51.568;5.048;2023-04-07T00:42:36;9.07;;;4.33;;
69534;SDS011;56754;51.568;5.048;2023-04-07T00:45:02;8.73;;;4.20;;
69534;SDS011;56754;51.568;5.048;2023-04-07T00:47:27;8.43;;;3.78;;
69534;SDS011;56754;51.568;5.048;2023-04-07T00:49:53;8.30;;;4.00;;
69534;SDS011;56754;51.568;5.048;2023-04-07T00:52:18;9.23;;;3.47;;
69534;SDS011;56754;51.568;5.048;2023-04-07T00:54:44;8.43;;;4.00;;
69534;SDS011;56754;51.568;5.048;2023-04-07T00:57:10;9.80;;;3.78;;
69534;SDS011;56754;51.568;5.048;2023-04-07T00:59:35;9.73;;;4.37;;
69534;SDS011;56754;51.568;5.048;2023-04-07T01:02:02;9.83;;;4.07;;
69534;SDS011;56754;51.568;5.048;2023-04-07T01:04:34;7.93;;;3.85;;
69534;SDS011;56754;51.568;5.048;2023-04-07T01:07:14;9.90;;;4.45;;
69534;SDS011;56754;51.568;5.048;2023-04-07T01:09:46;8.98;;;3.88;;
69534;SDS011;56754;51.568;5.048;2023-04-07T01:12:33;9.18;;;4.32;;
69534;SDS011;56754;51.568;5.048;2023-04-07T01:15:09;8.90;;;4.20;;
69534;SDS011;56754;51.568;5.048;2023-04-07T01:17:37;9.05;;;4.20;;
69534;SDS011;56754;51.568;5.048;2023-04-07T01:20:06;10.05;;;4.60;;
69534;SDS011;56754;51.568;5.048;2023-04-07T01:28:04;9.53;;;3.70;;
69534;SDS011;56754;51.568;5.048;2023-04-07T01:30:39;8.23;;;3.75;;
69534;SDS011;56754;51.568;5.048;2023-04-07T01:33:07;8.35;;;3.75;;
69534;SDS011;56754;51.568;5.048;2023-04-07T01:35:34;8.50;;;3.88;;
69534;SDS011;56754;51.568;5.048;2023-04-07T01:38:02;9.20;;;4.03;;
69534;SDS011;56754;51.568;5.048;2023-04-07T01:40:29;9.67;;;3.67;;
69534;SDS011;56754;51.568;5.048;2023-04-07T01:42:56;8.95;;;3.70;;
69534;SDS011;56754;51.568;5.048;2023-04-07T01:45:23;9.07;;;3.53;;
69534;SDS011;56754;51.568;5.048;2023-04-07T01:47:51;8.88;;;3.95;;
69534;SDS011;56754;51.568;5.048;2023-04-07T01:50:18;8.48;;;3.50;;
69534;SDS011;56754;51.568;5.048;2023-04-07T01:52:45;9.20;;;3.83;;
69534;SDS011;56754;51.568;5.048;2023-04-07T01:55:11;8.93;;;3.90;;
69534;SDS011;56754;51.568;5.048;2023-04-07T01:57:37;7.95;;;3.60;;
69534;SDS011;56754;51.568;5.048;2023-04-07T02:00:03;8.03;;;3.80;;
69534;SDS011;56754;51.568;5.048;2023-04-07T02:02:29;8.02;;;3.38;;
69534;SDS011;56754;51.568;5.048;2023-04-07T02:04:59;9.30;;;3.93;;
69534;SDS011;56754;51.568;5.048;2023-04-07T02:07:30;8.35;;;3.63;;
69534;SDS011;56754;51.568;5.048;2023-04-07T02:10:05;9.27;;;3.55;;
69534;SDS011;56754;51.568;5.048;2023-04-07T02:12:34;8.68;;;3.45;;
69534;SDS011;56754;51.568;5.048;2023-04-07T02:15:02;9.57;;;3.92;;
69534;SDS011;56754;51.568;5.048;2023-04-07T02:17:30;8.17;;;3.33;;
69534;SDS011;56754;51.568;5.048;2023-04-07T02:19:58;8.63;;;3.65;;
69534;SDS011;56754;51.568;5.048;2023-04-07T02:22:25;7.80;;;3.50;;
69534;SDS011;56754;51.568;5.048;2023-04-07T02:24:51;10.43;;;3.78;;
69534;SDS011;56754;51.568;5.048;2023-04-07T02:27:16;9.43;;;3.60;;
69534;SDS011;56754;51.568;5.048;2023-04-07T02:29:42;10.07;;;4.00;;
69534;SDS011;56754;51.568;5.048;2023-04-07T02:32:07;9.43;;;3.47;;
69534;SDS011;56754;51.568;5.048;2023-04-07T02:34:32;8.50;;;3.13;;
69534;SDS011;56754;51.568;5.048;2023-04-07T02:36:57;7.40;;;3.17;;
69534;SDS011;56754;51.568;5.048;2023-04-07T02:39:23;8.63;;;3.40;;
69534;SDS011;56754;51.568;5.048;2023-04-07T02:41:48;7.00;;;3.23;;
69534;SDS011;56754;51.568;5.048;2023-04-07T02:44:13;9.10;;;3.40;;
69534;SDS011;56754;51.568;5.048;2023-04-07T02:46:39;8.33;;;3.60;;
69534;SDS011;56754;51.568;5.048;2023-04-07T02:49:04;8.53;;;3.60;;
69534;SDS011;56754;51.568;5.048;2023-04-07T02:51:29;8.10;;;3.33;;
69534;SDS011;56754;51.568;5.048;2023-04-07T02:53:54;7.93;;;3.33;;
69534;SDS011;56754;51.568;5.048;2023-04-07T02:56:20;7.87;;;3.50;;
69534;SDS011;56754;51.568;5.048;2023-04-07T02:58:45;7.63;;;3.60;;
69534;SDS011;56754;51.568;5.048;2023-04-07T03:01:10;8.97;;;3.50;;
69534;SDS011;56754;51.568;5.048;2023-04-07T03:03:36;9.60;;;3.40;;
69534;SDS011;56754;51.568;5.048;2023-04-07T03:06:01;9.27;;;3.47;;
69534;SDS011;56754;51.568;5.048;2023-04-07T03:08:26;8.27;;;3.30;;
69534;SDS011;56754;51.568;5.048;2023-04-07T03:10:51;8.80;;;3.13;;
69534;SDS011;56754;51.568;5.048;2023-04-07T03:13:17;8.07;;;3.10;;
69534;SDS011;56754;51.568;5.048;2023-04-07T03:15:42;7.40;;;2.93;;
69534;SDS011;56754;51.568;5.048;2023-04-07T03:18:07;8.73;;;3.20;;
69534;SDS011;56754;51.568;5.048;2023-04-07T03:20:33;8.35;;;3.28;;
69534;SDS011;56754;51.568;5.048;2023-04-07T03:22:58;7.93;;;2.80;;
69534;SDS011;56754;51.568;5.048;2023-04-07T03:25:24;11.40;;;3.60;;
69534;SDS011;56754;51.568;5.048;2023-04-07T03:27:49;9.00;;;3.42;;
69534;SDS011;56754;51.568;5.048;2023-04-07T03:30:15;9.13;;;3.10;;
69534;SDS011;56754;51.568;5.048;2023-04-07T03:32:40;8.50;;;2.70;;
69534;SDS011;56754;51.568;5.048;2023-04-07T03:35:05;8.57;;;2.97;;
69534;SDS011;56754;51.568;5.048;2023-04-07T03:37:31;8.57;;;2.97;;
69534;SDS011;56754;51.568;5.048;2023-04-07T03:39:56;7.33;;;3.03;;
69534;SDS011;56754;51.568;5.048;2023-04-07T03:42:22;8.53;;;3.40;;
69534;SDS011;56754;51.568;5.048;2023-04-07T03:44:47;9.43;;;3.20;;
69534;SDS011;56754;51.568;5.048;2023-04-07T03:47:12;9.47;;;3.10;;
69534;SDS011;56754;51.568;5.048;2023-04-07T03:49:38;10.33;;;3.63;;
69534;SDS011;56754;51.568;5.048;2023-04-07T03:52:03;10.70;;;3.57;;
69534;SDS011;56754;51.568;5.048;2023-04-07T03:54:29;10.05;;;3.28;;
69534;SDS011;56754;51.568;5.048;2023-04-07T03:56:54;9.83;;;3.03;;
69534;SDS011;56754;51.568;5.048;2023-04-07T03:59:20;8.23;;;3.30;;
69534;SDS011;56754;51.568;5.048;2023-04-07T04:01:45;8.83;;;3.10;;
69534;SDS011;56754;51.568;5.048;2023-04-07T04:04:10;9.57;;;3.43;;
69534;SDS011;56754;51.568;5.048;2023-04-07T04:06:36;9.00;;;3.43;;
69534;SDS011;56754;51.568;5.048;2023-04-07T04:09:01;7.70;;;2.93;;
69534;SDS011;56754;51.568;5.048;2023-04-07T04:11:26;8.57;;;3.00;;
69534;SDS011;56754;51.568;5.048;2023-04-07T04:13:52;10.23;;;3.53;;
69534;SDS011;56754;51.568;5.048;2023-04-07T04:16:17;9.30;;;3.33;;
69534;SDS011;56754;51.568;5.048;2023-04-07T04:18:42;9.70;;;4.30;;
69534;SDS011;56754;51.568;5.048;2023-04-07T04:21:08;8.70;;;3.97;;
69534;SDS011;56754;51.568;5.048;2023-04-07T04:23:33;9.60;;;3.83;;
69534;SDS011;56754;51.568;5.048;2023-04-07T04:25:58;8.33;;;3.30;;
69534;SDS011;56754;51.568;5.048;2023-04-07T04:28:24;10.98;;;3.95;;
69534;SDS011;56754;51.568;5.048;2023-04-07T04:30:49;8.13;;;4.00;;
69534;SDS011;56754;51.568;5.048;2023-04-07T04:33:14;9.90;;;3.73;;
69534;SDS011;56754;51.568;5.048;2023-04-07T04:35:40;10.47;;;3.80;;
69534;SDS011;56754;51.568;5.048;2023-04-07T04:38:05;7.77;;;3.33;;
69534;SDS011;56754;51.568;5.048;2023-04-07T04:40:30;10.03;;;4.30;;
69534;SDS011;56754;51.568;5.048;2023-04-07T04:42:55;8.60;;;4.00;;
69534;SDS011;56754;51.568;5.048;2023-04-07T04:45:21;10.43;;;4.33;;
69534;SDS011;56754;51.568;5.048;2023-04-07T04:47:46;8.57;;;3.70;;
69534;SDS011;56754;51.568;5.048;2023-04-07T04:50:11;10.30;;;4.33;;
69534;SDS011;56754;51.568;5.048;2023-04-07T04:52:37;10.60;;;4.37;;
69534;SDS011;56754;51.568;5.048;2023-04-07T04:55:02;9.13;;;3.57;;
69534;SDS011;56754;51.568;5.048;2023-04-07T04:57:27;8.60;;;3.97;;
69534;SDS011;56754;51.568;5.048;2023-04-07T04:59:53;10.43;;;3.70;;
69534;SDS011;56754;51.568;5.048;2023-04-07T05:02:18;10.20;;;4.20;;
69534;SDS011;56754;51.568;5.048;2023-04-07T05:04:43;10.18;;;4.03;;
69534;SDS011;56754;51.568;5.048;2023-04-07T05:07:08;8.77;;;3.90;;
69534;SDS011;56754;51.568;5.048;2023-04-07T05:09:34;9.23;;;3.93;;
69534;SDS011;56754;51.568;5.048;2023-04-07T05:11:59;10.97;;;4.70;;
69534;SDS011;56754;51.568;5.048;2023-04-07T05:14:24;9.83;;;4.23;;
69534;SDS011;56754;51.568;5.048;2023-04-07T05:16:50;10.30;;;4.03;;
69534;SDS011;56754;51.568;5.048;2023-04-07T05:19:15;10.90;;;4.10;;
69534;SDS011;56754;51.568;5.048;2023-04-07T05:21:40;9.00;;;4.00;;
69534;SDS011;56754;51.568;5.048;2023-04-07T05:24:05;9.97;;;4.30;;
69534;SDS011;56754;51.568;5.048;2023-04-07T05:26:31;10.63;;;4.10;;
69534;SDS011;56754;51.568;5.048;2023-04-07T05:28:56;8.67;;;3.80;;
69534;SDS011;56754;51.568;5.048;2023-04-07T05:31:21;9.53;;;3.97;;
69534;SDS011;56754;51.568;5.048;2023-04-07T05:33:47;9.30;;;4.37;;
69534;SDS011;56754;51.568;5.048;2023-04-07T05:36:12;9.93;;;4.60;;
69534;SDS011;56754;51.568;5.048;2023-04-07T05:38:37;11.23;;;4.60;;
69534;SDS011;56754;51.568;5.048;2023-04-07T05:41:02;9.40;;;4.10;;
69534;SDS011;56754;51.568;5.048;2023-04-07T05:43:28;11.13;;;4.13;;
69534;SDS011;56754;51.568;5.048;2023-04-07T05:45:53;11.03;;;4.53;;
69534;SDS011;56754;51.568;5.048;2023-04-07T05:48:18;10.63;;;3.90;;
69534;SDS011;56754;51.568;5.048;2023-04-07T05:50:43;10.17;;;4.23;;
69534;SDS011;56754;51.568;5.048;2023-04-07T05:53:09;10.33;;;3.87;;
69534;SDS011;56754;51.568;5.048;2023-04-07T05:55:34;10.10;;;4.20;;
69534;SDS011;56754;51.568;5.048;2023-04-07T05:57:59;12.30;;;4.37;;
69534;SDS011;56754;51.568;5.048;2023-04-07T06:00:25;10.77;;;3.90;;
69534;SDS011;56754;51.568;5.048;2023-04-07T06:02:50;10.53;;;4.10;;
69534;SDS011;56754;51.568;5.048;2023-04-07T06:05:15;10.40;;;4.47;;
69534;SDS011;56754;51.568;5.048;2023-04-07T06:07:41;10.93;;;4.50;;
69534;SDS011;56754;51.568;5.048;2023-04-07T06:10:06;9.30;;;3.90;;
69534;SDS011;56754;51.568;5.048;2023-04-07T06:12:32;11.63;;;4.18;;
69534;SDS011;56754;51.568;5.048;2023-04-07T06:14:57;9.00;;;3.67;;
69534;SDS011;56754;51.568;5.048;2023-04-07T06:17:23;9.83;;;4.20;;
69534;SDS011;56754;51.568;5.048;2023-04-07T06:19:48;9.43;;;3.90;;
69534;SDS011;56754;51.568;5.048;2023-04-07T06:22:13;9.03;;;4.30;;
69534;SDS011;56754;51.568;5.048;2023-04-07T06:24:39;10.15;;;3.95;;
69534;SDS011;56754;51.568;5.048;2023-04-07T06:27:04;13.30;;;4.20;;
69534;SDS011;56754;51.568;5.048;2023-04-07T06:29:31;8.53;;;3.60;;
69534;SDS011;56754;51.568;5.048;2023-04-07T06:31:56;8.05;;;3.35;;
69534;SDS011;56754;51.568;5.048;2023-04-07T06:34:22;12.47;;;4.60;;
69534;SDS011;56754;51.568;5.048;2023-04-07T06:36:47;9.73;;;4.30;;
69534;SDS011;56754;51.568;5.048;2023-04-07T06:39:12;9.90;;;4.30;;
69534;SDS011;56754;51.568;5.048;2023-04-07T06:41:38;10.43;;;4.23;;
69534;SDS011;56754;51.568;5.048;2023-04-07T06:44:03;11.40;;;4.63;;
69534;SDS011;56754;51.568;5.048;2023-04-07T06:46:29;9.30;;;4.73;;
69534;SDS011;56754;51.568;5.048;2023-04-07T06:48:54;11.43;;;4.43;;
69534;SDS011;56754;51.568;5.048;2023-04-07T06:51:19;8.53;;;3.93;;
69534;SDS011;56754;51.568;5.048;2023-04-07T06:53:45;10.10;;;3.70;;
69534;SDS011;56754;51.568;5.048;2023-04-07T06:56:10;14.07;;;5.07;;
69534;SDS011;56754;51.568;5.048;2023-04-07T06:58:36;11.57;;;4.82;;
69534;SDS011;56754;51.568;5.048;2023-04-07T07:01:02;10.93;;;4.10;;
69534;SDS011;56754;51.568;5.048;2023-04-07T07:03:29;9.33;;;4.17;;
69534;SDS011;56754;51.568;5.048;2023-04-07T07:05:54;10.50;;;4.20;;
69534;SDS011;56754;51.568;5.048;2023-04-07T07:08:20;10.33;;;4.37;;
69534;SDS011;56754;51.568;5.048;2023-04-07T07:10:45;9.60;;;4.40;;
69534;SDS011;56754;51.568;5.048;2023-04-07T07:13:10;9.33;;;3.80;;
69534;SDS011;56754;51.568;5.048;2023-04-07T07:15:36;9.17;;;4.20;;
69534;SDS011;56754;51.568;5.048;2023-04-07T07:18:01;8.63;;;3.70;;
69534;SDS011;56754;51.568;5.048;2023-04-07T07:20:26;8.70;;;4.00;;
69534;SDS011;56754;51.568;5.048;2023-04-07T07:22:52;8.70;;;4.00;;
69534;SDS011;56754;51.568;5.048;2023-04-07T07:25:17;11.33;;;4.20;;
69534;SDS011;56754;51.568;5.048;2023-04-07T07:27:42;8.75;;;3.30;;
69534;SDS011;56754;51.568;5.048;2023-04-07T07:30:08;8.60;;;3.53;;
69534;SDS011;56754;51.568;5.048;2023-04-07T07:32:33;8.00;;;3.60;;
69534;SDS011;56754;51.568;5.048;2023-04-07T07:34:59;8.53;;;3.47;;
69534;SDS011;56754;51.568;5.048;2023-04-07T07:37:24;7.50;;;3.13;;
69534;SDS011;56754;51.568;5.048;2023-04-07T07:39:49;7.00;;;2.90;;
69534;SDS011;56754;51.568;5.048;2023-04-07T07:42:14;7.33;;;2.43;;
69534;SDS011;56754;51.568;5.048;2023-04-07T07:44:40;6.83;;;2.23;;
69534;SDS011;56754;51.568;5.048;2023-04-07T07:47:05;7.70;;;2.50;;
69534;SDS011;56754;51.568;5.048;2023-04-07T07:49:30;6.47;;;2.70;;
69534;SDS011;56754;51.568;5.048;2023-04-07T07:51:56;7.57;;;2.10;;
69534;SDS011;56754;51.568;5.048;2023-04-07T07:54:21;5.97;;;1.90;;
69534;SDS011;56754;51.568;5.048;2023-04-07T07:56:46;6.80;;;2.00;;
69534;SDS011;56754;51.568;5.048;2023-04-07T07:59:11;5.63;;;1.70;;
69534;SDS011;56754;51.568;5.048;2023-04-07T08:01:37;6.43;;;1.83;;
69534;SDS011;56754;51.568;5.048;2023-04-07T08:04:02;5.97;;;1.70;;
69534;SDS011;56754;51.568;5.048;2023-04-07T08:06:27;6.00;;;1.60;;
69534;SDS011;56754;51.568;5.048;2023-04-07T08:08:53;5.67;;;1.70;;
69534;SDS011;56754;51.568;5.048;2023-04-07T08:11:18;7.17;;;1.73;;
69534;SDS011;56754;51.568;5.048;2023-04-07T08:13:43;7.10;;;1.80;;
69534;SDS011;56754;51.568;5.048;2023-04-07T08:16:09;6.37;;;1.70;;
69534;SDS011;56754;51.568;5.048;2023-04-07T08:18:34;5.70;;;1.80;;
69534;SDS011;56754;51.568;5.048;2023-04-07T08:20:59;6.03;;;1.30;;
69534;SDS011;56754;51.568;5.048;2023-04-07T08:23:24;5.33;;;1.50;;
69534;SDS011;56754;51.568;5.048;2023-04-07T08:25:50;6.63;;;1.40;;
69534;SDS011;56754;51.568;5.048;2023-04-07T08:28:15;5.50;;;1.33;;
69534;SDS011;56754;51.568;5.048;2023-04-07T08:30:40;4.43;;;1.20;;
69534;SDS011;56754;51.568;5.048;2023-04-07T08:33:06;5.23;;;1.10;;
69534;SDS011;56754;51.568;5.048;2023-04-07T08:35:31;4.43;;;1.30;;
69534;SDS011;56754;51.568;5.048;2023-04-07T08:37:56;4.13;;;1.07;;
69534;SDS011;56754;51.568;5.048;2023-04-07T08:40:22;4.60;;;1.20;;
69534;SDS011;56754;51.568;5.048;2023-04-07T08:42:47;6.10;;;1.10;;
69534;SDS011;56754;51.568;5.048;2023-04-07T08:45:13;4.50;;;1.10;;
69534;SDS011;56754;51.568;5.048;2023-04-07T08:47:40;4.63;;;0.87;;
69534;SDS011;56754;51.568;5.048;2023-04-07T08:50:07;5.32;;;1.00;;
69534;SDS011;56754;51.568;5.048;2023-04-07T08:52:43;4.68;;;0.90;;
69534;SDS011;56754;51.568;5.048;2023-04-07T08:55:10;6.25;;;1.20;;
69534;SDS011;56754;51.568;5.048;2023-04-07T08:57:35;5.50;;;0.97;;
69534;SDS011;56754;51.568;5.048;2023-04-07T09:00:01;5.65;;;1.10;;
69534;SDS011;56754;51.568;5.048;2023-04-07T09:02:27;3.93;;;0.83;;
69534;SDS011;56754;51.568;5.048;2023-04-07T09:04:53;7.40;;;1.17;;
69534;SDS011;56754;51.568;5.048;2023-04-07T09:07:18;5.73;;;1.00;;
69534;SDS011;56754;51.568;5.048;2023-04-07T09:09:44;6.03;;;1.00;;
69534;SDS011;56754;51.568;5.048;2023-04-07T09:12:09;5.30;;;0.97;;
69534;SDS011;56754;51.568;5.048;2023-04-07T09:14:35;4.07;;;0.90;;
69534;SDS011;56754;51.568;5.048;2023-04-07T09:17:00;5.22;;;1.20;;
69534;SDS011;56754;51.568;5.048;2023-04-07T09:19:26;4.60;;;0.93;;
69534;SDS011;56754;51.568;5.048;2023-04-07T09:21:51;5.40;;;1.03;;
69534;SDS011;56754;51.568;5.048;2023-04-07T09:29:40;5.25;;;1.10;;
69534;SDS011;56754;51.568;5.048;2023-04-07T09:32:07;5.00;;;0.90;;
69534;SDS011;56754;51.568;5.048;2023-04-07T09:34:33;4.30;;;1.00;;
69534;SDS011;56754;51.568;5.048;2023-04-07T09:37:03;3.97;;;0.80;;
69534;SDS011;56754;51.568;5.048;2023-04-07T09:39:30;5.80;;;0.87;;
69534;SDS011;56754;51.568;5.048;2023-04-07T09:41:55;5.57;;;0.80;;
69534;SDS011;56754;51.568;5.048;2023-04-07T09:44:21;5.30;;;0.90;;
69534;SDS011;56754;51.568;5.048;2023-04-07T09:46:50;5.10;;;0.93;;
69534;SDS011;56754;51.568;5.048;2023-04-07T09:49:18;4.63;;;0.70;;
69534;SDS011;56754;51.568;5.048;2023-04-07T09:52:00;4.47;;;0.93;;
69534;SDS011;56754;51.568;5.048;2023-04-07T09:54:40;4.93;;;0.90;;
69534;SDS011;56754;51.568;5.048;2023-04-07T09:57:09;5.47;;;0.90;;
69534;SDS011;56754;51.568;5.048;2023-04-07T09:59:36;4.25;;;0.90;;
69534;SDS011;56754;51.568;5.048;2023-04-07T10:02:03;4.75;;;0.90;;
69534;SDS011;56754;51.568;5.048;2023-04-07T10:04:29;5.20;;;1.10;;
69534;SDS011;56754;51.568;5.048;2023-04-07T10:06:55;7.93;;;1.10;;
69534;SDS011;56754;51.568;5.048;2023-04-07T10:09:22;6.03;;;0.93;;
69534;SDS011;56754;51.568;5.048;2023-04-07T10:11:49;4.57;;;0.70;;
69534;SDS011;56754;51.568;5.048;2023-04-07T10:14:15;3.42;;;0.50;;
69534;SDS011;56754;51.568;5.048;2023-04-07T10:16:43;6.07;;;0.93;;
69534;SDS011;56754;51.568;5.048;2023-04-07T10:19:10;4.20;;;0.82;;
69534;SDS011;56754;51.568;5.048;2023-04-07T10:21:37;5.70;;;0.90;;
69534;SDS011;56754;51.568;5.048;2023-04-07T10:26:36;4.80;;;0.90;;
69534;SDS011;56754;51.568;5.048;2023-04-07T10:29:07;5.65;;;0.90;;
69534;SDS011;56754;51.568;5.048;2023-04-07T10:31:36;4.30;;;0.95;;
69534;SDS011;56754;51.568;5.048;2023-04-07T10:34:02;5.22;;;1.08;;
69534;SDS011;56754;51.568;5.048;2023-04-07T10:36:28;5.10;;;0.80;;
69534;SDS011;56754;51.568;5.048;2023-04-07T10:41:31;5.85;;;0.98;;
69534;SDS011;56754;51.568;5.048;2023-04-07T10:44:00;5.97;;;1.10;;
69534;SDS011;56754;51.568;5.048;2023-04-07T10:46:42;4.75;;;1.00;;
69534;SDS011;56754;51.568;5.048;2023-04-07T10:49:11;5.77;;;1.10;;
69534;SDS011;56754;51.568;5.048;2023-04-07T10:51:37;4.28;;;0.85;;
69534;SDS011;56754;51.568;5.048;2023-04-07T10:59:32;4.93;;;0.80;;
69534;SDS011;56754;51.568;5.048;2023-04-07T11:04:40;3.60;;;0.80;;
69534;SDS011;56754;51.568;5.048;2023-04-07T11:07:07;4.20;;;0.82;;
69534;SDS011;56754;51.568;5.048;2023-04-07T11:09:33;3.00;;;0.60;;
69534;SDS011;56754;51.568;5.048;2023-04-07T11:11:58;6.65;;;1.00;;
69534;SDS011;56754;51.568;5.048;2023-04-07T11:14:31;7.70;;;0.93;;
69534;SDS011;56754;51.568;5.048;2023-04-07T11:16:57;6.18;;;1.05;;
69534;SDS011;56754;51.568;5.048;2023-04-07T11:19:23;4.85;;;0.80;;
69534;SDS011;56754;51.568;5.048;2023-04-07T11:21:49;5.43;;;0.77;;
69534;SDS011;56754;51.568;5.048;2023-04-07T11:24:30;6.13;;;0.70;;
69534;SDS011;56754;51.568;5.048;2023-04-07T11:26:59;4.10;;;0.82;;
69534;SDS011;56754;51.568;5.048;2023-04-07T11:29:31;5.20;;;1.07;;
69534;SDS011;56754;51.568;5.048;2023-04-07T11:31:58;4.97;;;0.60;;
69534;SDS011;56754;51.568;5.048;2023-04-07T11:34:31;4.25;;;0.82;;
69534;SDS011;56754;51.568;5.048;2023-04-07T11:36:58;4.72;;;0.85;;
69534;SDS011;56754;51.568;5.048;2023-04-07T11:39:42;3.80;;;0.43;;
69534;SDS011;56754;51.568;5.048;2023-04-07T11:42:08;5.28;;;0.65;;
69534;SDS011;56754;51.568;5.048;2023-04-07T11:44:33;6.00;;;1.00;;
69534;SDS011;56754;51.568;5.048;2023-04-07T11:46:59;5.43;;;0.97;;
69534;SDS011;56754;51.568;5.048;2023-04-07T11:49:26;5.18;;;0.82;;
69534;SDS011;56754;51.568;5.048;2023-04-07T11:51:59;4.30;;;0.77;;
69534;SDS011;56754;51.568;5.048;2023-04-07T11:54:26;4.55;;;0.60;;
69534;SDS011;56754;51.568;5.048;2023-04-07T11:56:51;3.97;;;0.60;;
69534;SDS011;56754;51.568;5.048;2023-04-07T11:59:17;4.33;;;0.80;;
69534;SDS011;56754;51.568;5.048;2023-04-07T12:01:44;5.57;;;0.90;;
69534;SDS011;56754;51.568;5.048;2023-04-07T12:04:11;3.77;;;0.60;;
69534;SDS011;56754;51.568;5.048;2023-04-07T12:06:37;4.97;;;0.90;;
69534;SDS011;56754;51.568;5.048;2023-04-07T12:09:06;6.10;;;0.83;;
69534;SDS011;56754;51.568;5.048;2023-04-07T12:11:33;5.53;;;0.93;;
69534;SDS011;56754;51.568;5.048;2023-04-07T12:13:59;5.72;;;0.90;;
69534;SDS011;56754;51.568;5.048;2023-04-07T12:16:24;7.78;;;1.00;;
69534;SDS011;56754;51.568;5.048;2023-04-07T12:18:50;6.03;;;0.80;;
69534;SDS011;56754;51.568;5.048;2023-04-07T12:21:16;6.32;;;0.93;;
69534;SDS011;56754;51.568;5.048;2023-04-07T12:23:42;4.43;;;0.70;;
69534;SDS011;56754;51.568;5.048;2023-04-07T12:26:08;7.33;;;1.03;;
69534;SDS011;56754;51.568;5.048;2023-04-07T12:28:33;3.20;;;0.60;;
69534;SDS011;56754;51.568;5.048;2023-04-07T12:30:58;4.03;;;0.70;;
69534;SDS011;56754;51.568;5.048;2023-04-07T12:33:23;3.90;;;0.70;;
69534;SDS011;56754;51.568;5.048;2023-04-07T12:35:49;6.25;;;0.88;;
69534;SDS011;56754;51.568;5.048;2023-04-07T12:38:14;5.80;;;0.80;;
69534;SDS011;56754;51.568;5.048;2023-04-07T12:40:39;5.07;;;0.90;;
69534;SDS011;56754;51.568;5.048;2023-04-07T12:43:05;5.07;;;0.93;;
69534;SDS011;56754;51.568;5.048;2023-04-07T12:45:30;5.90;;;1.20;;
69534;SDS011;56754;51.568;5.048;2023-04-07T12:47:56;5.72;;;0.88;;
69534;SDS011;56754;51.568;5.048;2023-04-07T12:50:21;4.73;;;0.57;;
69534;SDS011;56754;51.568;5.048;2023-04-07T12:52:47;3.80;;;0.70;;
69534;SDS011;56754;51.568;5.048;2023-04-07T12:55:12;6.13;;;0.87;;
69534;SDS011;56754;51.568;5.048;2023-04-07T12:57:38;5.43;;;0.73;;
69534;SDS011;56754;51.568;5.048;2023-04-07T13:00:03;8.20;;;1.23;;
69534;SDS011;56754;51.568;5.048;2023-04-07T13:02:29;4.10;;;0.70;;
69534;SDS011;56754;51.568;5.048;2023-04-07T13:04:55;5.03;;;0.90;;
69534;SDS011;56754;51.568;5.048;2023-04-07T13:07:20;5.70;;;1.00;;
69534;SDS011;56754;51.568;5.048;2023-04-07T13:09:45;5.07;;;1.17;;
69534;SDS011;56754;51.568;5.048;2023-04-07T13:12:11;6.57;;;0.83;;
69534;SDS011;56754;51.568;5.048;2023-04-07T13:14:40;6.22;;;0.77;;
69534;SDS011;56754;51.568;5.048;2023-04-07T13:17:07;5.80;;;0.80;;
69534;SDS011;56754;51.568;5.048;2023-04-07T13:19:32;6.60;;;1.05;;
69534;SDS011;56754;51.568;5.048;2023-04-07T13:21:58;4.38;;;0.63;;
69534;SDS011;56754;51.568;5.048;2023-04-07T13:24:24;8.27;;;0.70;;
69534;SDS011;56754;51.568;5.048;2023-04-07T13:26:52;4.63;;;0.70;;
69534;SDS011;56754;51.568;5.048;2023-04-07T13:29:17;4.35;;;0.80;;
69534;SDS011;56754;51.568;5.048;2023-04-07T13:31:46;4.97;;;0.80;;
69534;SDS011;56754;51.568;5.048;2023-04-07T13:34:12;4.45;;;0.88;;
69534;SDS011;56754;51.568;5.048;2023-04-07T13:36:37;5.63;;;0.80;;
69534;SDS011;56754;51.568;5.048;2023-04-07T13:39:03;5.68;;;0.90;;
69534;SDS011;56754;51.568;5.048;2023-04-07T13:41:28;4.57;;;0.70;;
69534;SDS011;56754;51.568;5.048;2023-04-07T13:43:54;5.27;;;1.00;;
69534;SDS011;56754;51.568;5.048;2023-04-07T13:46:19;8.43;;;0.80;;
69534;SDS011;56754;51.568;5.048;2023-04-07T13:48:44;5.40;;;0.80;;
69534;SDS011;56754;51.568;5.048;2023-04-07T13:51:10;6.00;;;1.00;;
69534;SDS011;56754;51.568;5.048;2023-04-07T13:53:36;5.35;;;1.02;;
69534;SDS011;56754;51.568;5.048;2023-04-07T13:56:02;5.07;;;0.80;;
69534;SDS011;56754;51.568;5.048;2023-04-07T13:58:27;5.67;;;1.17;;
69534;SDS011;56754;51.568;5.048;2023-04-07T14:00:53;5.67;;;1.07;;
69534;SDS011;56754;51.568;5.048;2023-04-07T14:03:18;4.80;;;0.80;;
69534;SDS011;56754;51.568;5.048;2023-04-07T14:05:43;5.47;;;0.90;;
69534;SDS011;56754;51.568;5.048;2023-04-07T14:08:09;3.93;;;0.80;;
69534;SDS011;56754;51.568;5.048;2023-04-07T14:10:34;5.47;;;0.80;;
69534;SDS011;56754;51.568;5.048;2023-04-07T14:12:59;6.80;;;0.87;;
69534;SDS011;56754;51.568;5.048;2023-04-07T14:15:25;6.47;;;0.97;;
69534;SDS011;56754;51.568;5.048;2023-04-07T14:17:50;5.13;;;0.90;;
69534;SDS011;56754;51.568;5.048;2023-04-07T14:20:15;4.33;;;0.80;;
69534;SDS011;56754;51.568;5.048;2023-04-07T14:22:41;5.73;;;0.80;;
69534;SDS011;56754;51.568;5.048;2023-04-07T14:25:06;5.97;;;1.03;;
69534;SDS011;56754;51.568;5.048;2023-04-07T14:27:31;6.22;;;1.00;;
69534;SDS011;56754;51.568;5.048;2023-04-07T14:29:56;4.27;;;0.87;;
69534;SDS011;56754;51.568;5.048;2023-04-07T14:32:22;4.67;;;0.80;;
69534;SDS011;56754;51.568;5.048;2023-04-07T14:34:47;5.47;;;0.73;;
69534;SDS011;56754;51.568;5.048;2023-04-07T14:37:13;5.37;;;0.80;;
69534;SDS011;56754;51.568;5.048;2023-04-07T14:39:38;5.82;;;0.90;;
69534;SDS011;56754;51.568;5.048;2023-04-07T14:42:03;6.20;;;0.77;;
69534;SDS011;56754;51.568;5.048;2023-04-07T14:44:29;4.80;;;1.23;;
69534;SDS011;56754;51.568;5.048;2023-04-07T14:46:54;5.90;;;1.10;;
69534;SDS011;56754;51.568;5.048;2023-04-07T14:49:19;7.27;;;0.80;;
69534;SDS011;56754;51.568;5.048;2023-04-07T14:51:45;5.17;;;1.07;;
69534;SDS011;56754;51.568;5.048;2023-04-07T14:54:10;5.03;;;1.05;;
69534;SDS011;56754;51.568;5.048;2023-04-07T14:56:35;6.13;;;0.90;;
69534;SDS011;56754;51.568;5.048;2023-04-07T14:59:00;8.90;;;1.17;;
69534;SDS011;56754;51.568;5.048;2023-04-07T15:01:26;5.63;;;0.73;;
69534;SDS011;56754;51.568;5.048;2023-04-07T15:03:51;3.93;;;1.10;;